Time;durP1;ratioP1;P1;durP2;ratioP2;P2;SDS_P1;SDS_P2;PMS_P1;PMS_P2;Temp;Humidity;BMP_temperature;BMP_pressure;BME280_temperature;BME280_humidity;BME280_pressure;Samples;Min_cycle;Max_cycle;Signal;HPM_P1;HPM_P2
2021/05/16 00:00:42;;;;;;;2.70;1.17;;;12.20;99.90;;;;;;5011379;28;20410;-67
2021/05/16 00:03:10;;;;;;;2.47;1.90;;;12.20;99.90;;;;;;5011453;28;20420;-69
2021/05/16 00:05:37;;;;;;;1.83;0.80;;;12.20;99.90;;;;;;5011332;28;20475;-71
2021/05/16 00:08:06;;;;;;;1.83;1.60;;;12.20;99.90;;;;;;5011494;28;20400;-69
2021/05/16 00:10:34;;;;;;;1.80;1.27;;;12.20;99.90;;;;;;5011352;28;20431;-68
2021/05/16 00:13:03;;;;;;;2.90;1.50;;;12.10;99.90;;;;;;5010945;28;20418;-68
2021/05/16 00:15:31;;;;;;;2.00;1.33;;;12.10;99.90;;;;;;5011210;28;20421;-68
2021/05/16 00:17:59;;;;;;;3.10;1.60;;;12.00;99.90;;;;;;5010019;28;20980;-70
2021/05/16 00:20:29;;;;;;;1.83;1.63;;;12.00;99.90;;;;;;5011063;28;20406;-68
2021/05/16 00:22:57;;;;;;;1.87;1.13;;;12.00;99.90;;;;;;5008976;28;20442;-68
2021/05/16 00:25:27;;;;;;;2.93;1.47;;;12.00;99.90;;;;;;5010674;28;20446;-68
2021/05/16 00:27:57;;;;;;;2.23;1.37;;;11.90;99.90;;;;;;5011253;28;20775;-68
2021/05/16 00:30:26;;;;;;;1.30;0.87;;;12.00;99.90;;;;;;5010501;28;20487;-68
2021/05/16 00:32:56;;;;;;;1.57;1.47;;;11.90;99.90;;;;;;5010137;28;20426;-68
2021/05/16 00:35:27;;;;;;;1.47;1.00;;;11.90;99.90;;;;;;5010731;28;20402;-67
2021/05/16 00:37:55;;;;;;;2.03;1.30;;;11.90;99.90;;;;;;5009623;28;20412;-70
2021/05/16 00:40:23;;;;;;;1.30;0.90;;;11.90;99.90;;;;;;5010480;28;20461;-68
2021/05/16 00:42:52;;;;;;;2.20;1.57;;;11.90;99.90;;;;;;5009596;28;20527;-68
2021/05/16 00:45:22;;;;;;;1.73;1.30;;;11.80;99.90;;;;;;5012117;28;20830;-68
2021/05/16 00:47:51;;;;;;;2.40;1.00;;;11.70;99.90;;;;;;5012017;28;20482;-68
2021/05/16 00:50:21;;;;;;;2.30;1.63;;;11.60;99.90;;;;;;5012727;28;20396;-68
2021/05/16 00:52:49;;;;;;;1.40;1.30;;;11.60;99.90;;;;;;5010624;28;20480;-68
2021/05/16 00:55:18;;;;;;;1.70;1.10;;;11.40;99.90;;;;;;5009908;28;20415;-67
2021/05/16 00:57:46;;;;;;;1.83;1.20;;;11.40;99.90;;;;;;5009480;28;20403;-69
2021/05/16 01:00:17;;;;;;;1.83;1.63;;;11.30;99.90;;;;;;5010990;28;20436;-67
2021/05/16 01:02:45;;;;;;;1.90;1.33;;;11.30;99.90;;;;;;5009043;28;20465;-68
2021/05/16 01:05:17;;;;;;;2.20;1.87;;;11.30;99.90;;;;;;5009334;28;20493;-67
2021/05/16 01:07:47;;;;;;;1.27;1.17;;;11.20;99.90;;;;;;5009895;28;20551;-68
2021/05/16 01:10:16;;;;;;;1.00;0.87;;;11.20;99.90;;;;;;5010587;28;20957;-68
2021/05/16 01:12:45;;;;;;;1.50;1.13;;;11.10;99.90;;;;;;5010285;28;20532;-68
2021/05/16 01:15:17;;;;;;;2.20;1.43;;;11.10;99.90;;;;;;5009026;28;21012;-70
2021/05/16 01:17:46;;;;;;;3.07;1.37;;;11.10;99.90;;;;;;5009148;28;20864;-68
2021/05/16 01:20:16;;;;;;;2.17;1.50;;;11.10;99.90;;;;;;5008647;28;20436;-68
2021/05/16 01:22:55;;;;;;;2.00;1.23;;;10.90;99.90;;;;;;5008206;28;20439;-69
2021/05/16 01:25:24;;;;;;;1.40;1.20;;;10.90;99.90;;;;;;5010380;28;20457;-70
2021/05/16 01:27:53;;;;;;;1.50;1.00;;;10.80;99.90;;;;;;5010350;28;20452;-68
2021/05/16 01:30:21;;;;;;;2.37;1.40;;;10.80;99.90;;;;;;5010329;28;20487;-69
2021/05/16 01:32:51;;;;;;;1.53;1.43;;;10.80;99.90;;;;;;5008870;28;20485;-69
2021/05/16 01:35:19;;;;;;;1.33;1.13;;;10.70;99.90;;;;;;5010315;28;20426;-68
2021/05/16 01:37:49;;;;;;;1.53;1.40;;;10.60;99.90;;;;;;5009390;28;20487;-69
2021/05/16 01:40:20;;;;;;;1.50;1.30;;;10.60;99.90;;;;;;5010646;28;20429;-69
2021/05/16 01:42:54;;;;;;;2.03;1.30;;;10.60;99.90;;;;;;5008747;28;20554;-69
2021/05/16 01:45:24;;;;;;;1.67;1.57;;;10.60;99.90;;;;;;5012024;28;20702;-69
2021/05/16 01:47:52;;;;;;;3.00;1.50;;;10.50;99.90;;;;;;5014603;28;20514;-69
2021/05/16 01:50:21;;;;;;;2.70;1.47;;;10.50;99.90;;;;;;5012422;28;20475;-69
2021/05/16 01:52:49;;;;;;;3.60;2.40;;;10.40;99.90;;;;;;5015373;28;20787;-69
2021/05/16 01:55:19;;;;;;;1.70;1.37;;;10.40;99.90;;;;;;5015506;28;20425;-68
2021/05/16 01:57:48;;;;;;;1.75;1.40;;;10.30;99.90;;;;;;5014216;28;20419;-68
2021/05/16 02:00:22;;;;;;;1.80;1.37;;;10.30;99.90;;;;;;5014182;28;20232;-68
2021/05/16 02:02:52;;;;;;;1.30;1.20;;;10.30;99.90;;;;;;5012101;28;20465;-69
2021/05/16 02:05:25;;;;;;;1.90;1.40;;;10.30;99.90;;;;;;5012400;28;20976;-68
2021/05/16 02:07:54;;;;;;;1.47;1.37;;;10.30;99.90;;;;;;5013845;28;20503;-68
2021/05/16 02:10:23;;;;;;;4.00;1.83;;;10.30;99.90;;;;;;5012450;28;20444;-67
2021/05/16 02:12:57;;;;;;;2.28;1.92;;;10.30;99.90;;;;;;5011979;28;20560;-68
2021/05/16 02:15:25;;;;;;;2.08;1.85;;;10.20;99.90;;;;;;5011917;28;20194;-70
2021/05/16 02:17:55;;;;;;;2.10;1.90;;;10.30;99.90;;;;;;5012076;28;20741;-68
2021/05/16 02:20:24;;;;;;;2.10;1.50;;;10.20;99.90;;;;;;5013747;28;20421;-68
2021/05/16 02:22:53;;;;;;;1.47;1.20;;;10.10;99.90;;;;;;5079958;22;20830;-69
2021/05/16 02:25:23;;;;;;;2.20;1.50;;;10.10;99.90;;;;;;5034123;28;20448;-67
2021/05/16 02:27:51;;;;;;;2.73;1.60;;;10.10;99.90;;;;;;5032996;28;20467;-70
2021/05/16 02:30:23;;;;;;;1.67;1.40;;;10.00;99.90;;;;;;5034034;28;20428;-68
2021/05/16 02:32:51;;;;;;;1.87;1.50;;;10.10;99.90;;;;;;5032369;28;20308;-68
2021/05/16 02:35:19;;;;;;;1.45;1.23;;;10.10;99.90;;;;;;5033786;28;20427;-69
2021/05/16 02:37:51;;;;;;;1.77;1.50;;;10.00;99.90;;;;;;5033836;28;20186;-69
2021/05/16 02:40:19;;;;;;;2.40;1.40;;;10.00;99.90;;;;;;5033989;28;20836;-69
2021/05/16 02:42:48;;;;;;;5.03;1.63;;;10.00;99.90;;;;;;5035541;28;20460;-69
2021/05/16 02:45:17;;;;;;;2.55;1.60;;;9.90;99.90;;;;;;5035368;28;20260;-69
2021/05/16 02:47:46;;;;;;;2.13;1.65;;;9.80;99.90;;;;;;5035750;28;20197;-69
2021/05/16 02:50:16;;;;;;;2.17;1.52;;;9.90;99.90;;;;;;5035904;28;20169;-69
2021/05/16 02:52:58;;;;;;;2.22;1.38;;;9.90;99.90;;;;;;5034943;28;20209;-68
2021/05/16 02:55:30;;;;;;;1.95;1.75;;;9.90;99.90;;;;;;5034990;28;20533;-68
2021/05/16 02:57:59;;;;;;;1.52;1.42;;;9.90;99.90;;;;;;5035660;28;20729;-69
2021/05/16 03:00:33;;;;;;;2.70;1.50;;;9.80;99.90;;;;;;5034480;28;20189;-68
2021/05/16 03:03:01;;;;;;;3.30;2.00;;;9.80;99.90;;;;;;5035359;28;20554;-69
2021/05/16 03:05:30;;;;;;;2.40;1.73;;;9.80;99.90;;;;;;5033722;28;20806;-69
2021/05/16 03:07:59;;;;;;;1.80;1.20;;;9.80;99.90;;;;;;5031695;28;20435;-69
2021/05/16 03:10:27;;;;;;;2.10;1.90;;;9.70;99.90;;;;;;5031988;28;20606;-69
2021/05/16 03:12:55;;;;;;;3.42;1.88;;;9.70;99.90;;;;;;5032800;28;20217;-69
2021/05/16 03:15:24;;;;;;;2.50;1.70;;;9.70;99.90;;;;;;5031964;28;20212;-69
2021/05/16 03:17:53;;;;;;;1.70;1.23;;;9.80;99.90;;;;;;5032972;28;20513;-69
2021/05/16 03:20:21;;;;;;;1.70;1.53;;;9.80;99.90;;;;;;5033012;28;20406;-69
2021/05/16 03:22:50;;;;;;;1.95;1.33;;;9.80;99.90;;;;;;5031939;28;20421;-69
2021/05/16 03:25:19;;;;;;;1.70;1.60;;;9.90;99.90;;;;;;5032800;28;20531;-69
2021/05/16 03:27:48;;;;;;;1.73;1.48;;;9.80;99.90;;;;;;5032807;28;20855;-69
2021/05/16 03:30:17;;;;;;;3.20;2.28;;;9.90;99.90;;;;;;5032709;28;20634;-69
2021/05/16 03:32:46;;;;;;;2.03;1.70;;;10.00;99.90;;;;;;5032091;28;20209;-69
2021/05/16 03:35:14;;;;;;;1.92;1.70;;;10.00;99.90;;;;;;5032132;28;20248;-69
2021/05/16 03:37:41;;;;;;;1.63;1.42;;;10.00;99.90;;;;;;5032621;28;20176;-69
2021/05/16 03:40:10;;;;;;;2.97;1.90;;;10.60;99.90;;;;;;5032524;28;20244;-69
2021/05/16 03:42:38;;;;;;;2.40;1.57;;;11.70;99.90;;;;;;5032297;28;20968;-69
2021/05/16 03:45:08;;;;;;;2.50;1.40;;;13.10;99.90;;;;;;5031285;28;20409;-69
2021/05/16 03:47:36;;;;;;;3.70;2.10;;;14.30;99.90;;;;;;5032290;28;20531;-69
2021/05/16 03:50:06;;;;;;;3.23;1.33;;;15.60;99.90;;;;;;5032229;28;20416;-69
2021/05/16 03:52:35;;;;;;;1.20;1.10;;;16.60;99.90;;;;;;5032042;28;21182;-69
2021/05/16 03:55:04;;;;;;;2.27;1.40;;;17.60;99.90;;;;;;5031891;28;20387;-69
2021/05/16 03:57:31;;;;;;;2.33;1.93;;;18.60;99.90;;;;;;5030733;28;20406;-69
2021/05/16 03:59:59;;;;;;;2.10;1.40;;;19.40;99.90;;;;;;5031664;28;20511;-69
2021/05/16 04:02:27;;;;;;;1.70;1.33;;;19.80;99.90;;;;;;5031628;28;20463;-69
2021/05/16 04:04:54;;;;;;;2.73;1.40;;;20.30;99.90;;;;;;5030480;28;20977;-69
2021/05/16 04:07:23;;;;;;;1.77;1.23;;;20.50;99.90;;;;;;5032066;28;20433;-69
2021/05/16 04:09:51;;;;;;;1.87;1.43;;;20.60;99.90;;;;;;5031810;28;20391;-70
2021/05/16 04:12:19;;;;;;;2.23;1.47;;;20.50;99.90;;;;;;5031708;28;20448;-70
2021/05/16 04:14:49;;;;;;;1.80;1.43;;;19.90;99.90;;;;;;5030844;28;20420;-69
2021/05/16 04:17:17;;;;;;;2.93;2.50;;;20.40;99.90;;;;;;5031629;28;20539;-69
2021/05/16 04:19:45;;;;;;;1.73;1.47;;;21.20;99.90;;;;;;5031912;28;20455;-69
2021/05/16 04:22:13;;;;;;;1.80;1.53;;;22.10;99.90;;;;;;5031510;28;20454;-69
2021/05/16 04:24:41;;;;;;;1.63;1.10;;;23.00;99.90;;;;;;5031362;28;20774;-69
2021/05/16 04:27:10;;;;;;;2.27;1.50;;;23.30;99.90;;;;;;5031770;28;20398;-69
2021/05/16 04:29:37;;;;;;;3.17;1.80;;;24.20;99.90;;;;;;5031340;28;20414;-69
2021/05/16 04:32:05;;;;;;;1.90;1.50;;;24.60;99.90;;;;;;5031015;28;20440;-69
2021/05/16 04:34:33;;;;;;;1.70;1.60;;;24.10;99.90;;;;;;5031577;28;20440;-70
2021/05/16 04:37:01;;;;;;;1.60;1.30;;;23.30;99.90;;;;;;5030914;28;20534;-69
2021/05/16 04:39:28;;;;;;;3.63;1.27;;;23.50;99.90;;;;;;5031284;28;20456;-69
2021/05/16 04:41:57;;;;;;;1.30;1.17;;;23.50;99.90;;;;;;5030428;28;20771;-69
2021/05/16 04:44:25;;;;;;;1.73;1.47;;;22.80;99.90;;;;;;5031369;28;20420;-69
2021/05/16 04:46:56;;;;;;;1.53;1.30;;;21.00;99.90;;;;;;5030957;28;20395;-69
2021/05/16 04:49:24;;;;;;;1.50;1.03;;;19.20;99.90;;;;;;5030856;28;20402;-70
2021/05/16 04:51:52;;;;;;;2.00;1.33;;;17.50;99.90;;;;;;5030605;28;20850;-69
2021/05/16 04:54:20;;;;;;;1.60;1.10;;;16.40;99.90;;;;;;5030685;28;20395;-68
2021/05/16 04:56:47;;;;;;;1.50;1.30;;;15.70;99.90;;;;;;5029425;28;20453;-69
2021/05/16 04:59:16;;;;;;;1.93;1.33;;;15.20;99.90;;;;;;5030911;28;20425;-69
2021/05/16 05:01:43;;;;;;;2.97;2.77;;;14.80;99.90;;;;;;5029379;28;20419;-69
2021/05/16 05:04:11;;;;;;;1.83;1.70;;;14.40;99.90;;;;;;5030706;28;20398;-70
2021/05/16 05:06:39;;;;;;;1.50;1.30;;;14.30;99.90;;;;;;5029843;28;20414;-69
2021/05/16 05:09:07;;;;;;;1.87;1.60;;;14.30;99.90;;;;;;5030916;28;20398;-69
2021/05/16 05:11:35;;;;;;;2.20;2.00;;;14.20;99.90;;;;;;5030554;28;20424;-69
2021/05/16 05:14:03;;;;;;;1.80;1.47;;;14.20;99.90;;;;;;5030477;28;20960;-69
2021/05/16 05:16:32;;;;;;;1.67;1.57;;;14.20;99.90;;;;;;5030549;28;20474;-69
2021/05/16 05:19:00;;;;;;;3.00;1.70;;;14.30;99.90;;;;;;5030786;28;20384;-68
2021/05/16 05:21:27;;;;;;;1.53;1.23;;;14.30;99.90;;;;;;5030248;28;20418;-68
2021/05/16 05:23:55;;;;;;;1.97;1.80;;;14.10;99.90;;;;;;5030263;28;20426;-69
2021/05/16 05:26:23;;;;;;;1.67;1.57;;;14.10;99.90;;;;;;5029740;28;20480;-68
2021/05/16 05:28:50;;;;;;;1.10;0.90;;;14.10;99.90;;;;;;5030863;28;20420;-68
2021/05/16 05:31:18;;;;;;;1.93;1.57;;;14.10;99.90;;;;;;5030708;28;20925;-68
2021/05/16 05:33:46;;;;;;;1.73;1.43;;;14.30;99.90;;;;;;5030505;28;20441;-69
2021/05/16 05:36:14;;;;;;;2.30;1.53;;;14.30;99.90;;;;;;5030520;28;20478;-68
2021/05/16 05:38:42;;;;;;;2.30;1.43;;;14.20;99.90;;;;;;5030508;28;20473;-68
2021/05/16 05:41:09;;;;;;;4.00;1.60;;;14.30;99.90;;;;;;5030202;28;20399;-69
2021/05/16 05:43:37;;;;;;;1.93;1.53;;;14.00;99.90;;;;;;5030062;28;20816;-69
2021/05/16 05:46:05;;;;;;;1.60;1.30;;;13.90;99.90;;;;;;5030173;28;20395;-68
2021/05/16 05:48:35;;;;;;;1.37;1.13;;;13.80;99.90;;;;;;5030120;28;20821;-68
2021/05/16 05:51:04;;;;;;;1.87;1.00;;;13.80;99.90;;;;;;5030122;28;20416;-68
2021/05/16 05:53:33;;;;;;;2.60;1.67;;;14.00;99.90;;;;;;5030103;28;20448;-68
2021/05/16 05:56:00;;;;;;;3.83;1.50;;;14.20;99.90;;;;;;5029861;28;20455;-68
2021/05/16 05:58:32;;;;;;;2.60;1.40;;;14.10;99.90;;;;;;5030110;28;20386;-68
2021/05/16 06:01:00;;;;;;;1.47;1.37;;;14.20;99.90;;;;;;5029675;28;20391;-69
2021/05/16 06:03:28;;;;;;;1.93;1.50;;;14.30;99.90;;;;;;5029886;28;20450;-69
2021/05/16 06:05:55;;;;;;;4.53;2.00;;;14.40;99.90;;;;;;5030150;28;20423;-69
2021/05/16 06:08:24;;;;;;;1.40;1.20;;;14.50;99.90;;;;;;5029050;28;20418;-70
2021/05/16 06:10:52;;;;;;;2.43;1.40;;;14.60;99.90;;;;;;5029400;28;20792;-69
2021/05/16 06:13:19;;;;;;;1.80;1.40;;;14.80;99.90;;;;;;5029552;28;20422;-69
2021/05/16 06:15:47;;;;;;;1.20;0.90;;;14.80;99.90;;;;;;5028482;28;20447;-69
2021/05/16 06:18:15;;;;;;;1.03;0.90;;;14.90;99.90;;;;;;5030213;28;20489;-69
2021/05/16 06:20:43;;;;;;;2.27;2.03;;;14.90;99.90;;;;;;5029973;28;20459;-69
2021/05/16 06:23:13;;;;;;;1.80;1.13;;;14.80;99.90;;;;;;5029763;28;20468;-70
2021/05/16 06:25:45;;;;;;;1.10;0.97;;;14.70;99.90;;;;;;5028523;28;20406;-70
2021/05/16 06:28:12;;;;;;;2.10;1.37;;;15.00;99.90;;;;;;5029810;28;20398;-70
2021/05/16 06:30:40;;;;;;;1.23;0.87;;;15.30;99.90;;;;;;5029584;28;20398;-70
2021/05/16 06:33:08;;;;;;;1.30;1.00;;;15.50;99.90;;;;;;5029545;28;20469;-70
2021/05/16 06:35:36;;;;;;;1.13;0.97;;;15.70;99.90;;;;;;5029877;28;20401;-70
2021/05/16 06:38:03;;;;;;;1.73;1.10;;;15.70;99.90;;;;;;5032459;28;20502;-70
2021/05/16 06:40:32;;;;;;;1.20;1.10;;;15.80;99.90;;;;;;5031896;28;20822;-70
2021/05/16 06:43:04;;;;;;;1.20;1.03;;;15.90;99.90;;;;;;5033216;28;20483;-70
2021/05/16 06:45:32;;;;;;;1.77;0.90;;;16.10;99.90;;;;;;5032150;28;20434;-70
2021/05/16 06:48:00;;;;;;;1.97;1.60;;;15.90;99.90;;;;;;5033155;28;20427;-70
2021/05/16 06:50:27;;;;;;;1.20;0.90;;;16.10;99.90;;;;;;5033364;28;20762;-70
2021/05/16 06:52:55;;;;;;;2.43;1.10;;;16.40;99.90;;;;;;5033283;28;20789;-69
2021/05/16 06:55:23;;;;;;;1.77;1.33;;;16.80;99.90;;;;;;5032813;28;20406;-69
2021/05/16 06:57:51;;;;;;;1.03;0.93;;;16.40;99.90;;;;;;5033369;28;20999;-69
2021/05/16 07:00:20;;;;;;;1.47;1.37;;;15.90;99.90;;;;;;5033235;28;20507;-69
2021/05/16 07:02:48;;;;;;;1.30;1.10;;;15.60;99.90;;;;;;5033143;28;20419;-70
2021/05/16 07:05:15;;;;;;;1.40;1.10;;;15.80;99.90;;;;;;5032911;28;20975;-69
2021/05/16 07:07:43;;;;;;;1.30;1.00;;;15.70;99.90;;;;;;5033219;28;20391;-69
2021/05/16 07:10:11;;;;;;;1.63;1.30;;;15.80;99.90;;;;;;5031626;28;20444;-69
2021/05/16 07:12:39;;;;;;;1.93;1.43;;;16.10;99.90;;;;;;5032732;28;20444;-70
2021/05/16 07:15:12;;;;;;;1.53;1.30;;;16.10;99.90;;;;;;5032648;28;20956;-70
2021/05/16 07:17:40;;;;;;;1.87;1.50;;;15.90;99.90;;;;;;5032578;28;20452;-70
2021/05/16 07:20:09;;;;;;;1.20;1.00;;;15.50;99.90;;;;;;5033022;28;20474;-70
2021/05/16 07:22:37;;;;;;;1.40;1.10;;;15.30;99.90;;;;;;5032579;28;20550;-70
2021/05/16 07:25:06;;;;;;;1.30;1.20;;;14.90;99.90;;;;;;5033570;28;20407;-69
2021/05/16 07:27:33;;;;;;;3.27;1.97;;;14.70;99.90;;;;;;5036912;28;20415;-69
2021/05/16 07:30:01;;;;;;;1.40;1.00;;;14.60;99.90;;;;;;5032566;28;20390;-68
2021/05/16 07:32:29;;;;;;;2.60;1.73;;;14.30;99.90;;;;;;5032274;28;20419;-68
2021/05/16 07:34:57;;;;;;;1.30;1.20;;;13.80;99.90;;;;;;5032119;28;20944;-68
2021/05/16 07:37:25;;;;;;;2.10;1.83;;;13.70;99.90;;;;;;5032811;28;20551;-68
2021/05/16 07:39:52;;;;;;;1.50;1.17;;;13.80;99.90;;;;;;5032715;28;20383;-69
2021/05/16 07:42:20;;;;;;;1.53;1.43;;;14.00;99.90;;;;;;5032469;28;20410;-69
2021/05/16 07:45:08;;;;;;;1.63;1.23;;;14.30;99.90;;;;;;5032772;28;20453;-69
2021/05/16 07:47:35;;;;;;;1.77;1.53;;;14.80;99.90;;;;;;5032162;28;20416;-70
2021/05/16 07:50:06;;;;;;;1.70;1.40;;;15.30;99.90;;;;;;5031768;28;20455;-69
2021/05/16 07:52:33;;;;;;;1.73;1.47;;;15.40;99.90;;;;;;5032686;28;20439;-68
2021/05/16 07:55:01;;;;;;;1.33;1.20;;;15.60;99.90;;;;;;5032780;28;20395;-69
2021/05/16 07:57:29;;;;;;;1.43;1.30;;;15.70;99.90;;;;;;5031761;28;20460;-69
2021/05/16 07:59:56;;;;;;;2.40;1.07;;;15.60;99.90;;;;;;5033204;28;21016;-69
2021/05/16 08:02:24;;;;;;;1.93;1.00;;;15.40;99.90;;;;;;5031750;28;20431;-70
2021/05/16 08:04:52;;;;;;;1.40;1.30;;;15.40;99.90;;;;;;5032321;28;20432;-69
2021/05/16 08:07:21;;;;;;;2.23;0.90;;;15.30;99.90;;;;;;5033301;28;20493;-70
2021/05/16 08:09:48;;;;;;;1.53;1.37;;;15.30;99.90;;;;;;5033542;28;20406;-69
2021/05/16 08:12:16;;;;;;;1.60;1.17;;;14.90;99.90;;;;;;5031475;28;20447;-68
2021/05/16 08:14:43;;;;;;;2.50;1.73;;;14.70;99.90;;;;;;5031480;28;20416;-69
2021/05/16 08:17:11;;;;;;;1.53;1.40;;;14.30;99.90;;;;;;5031423;28;20510;-69
2021/05/16 08:19:39;;;;;;;1.50;1.40;;;14.40;99.90;;;;;;5031864;28;20391;-69
2021/05/16 08:22:09;;;;;;;2.37;1.40;;;14.70;99.90;;;;;;5031437;28;20450;-69
2021/05/16 08:24:38;;;;;;;1.90;1.73;;;15.10;99.90;;;;;;5031308;28;20427;-69
2021/05/16 08:27:07;;;;;;;1.67;1.27;;;15.60;99.90;;;;;;5031449;28;20406;-69
2021/05/16 08:29:36;;;;;;;3.30;1.90;;;16.20;99.90;;;;;;5031141;28;20454;-69
2021/05/16 08:32:05;;;;;;;2.03;1.80;;;16.70;99.90;;;;;;5031204;28;20919;-69
2021/05/16 08:34:33;;;;;;;4.00;2.00;;;16.90;99.90;;;;;;5031213;28;20952;-69
2021/05/16 08:37:04;;;;;;;2.73;1.50;;;16.80;99.90;;;;;;5031048;28;20469;-69
2021/05/16 08:39:32;;;;;;;1.40;1.30;;;16.30;99.90;;;;;;5031015;28;20445;-69
2021/05/16 08:42:00;;;;;;;2.27;1.40;;;16.20;99.90;;;;;;5029677;28;20484;-69
2021/05/16 08:44:31;;;;;;;1.50;1.33;;;16.50;99.90;;;;;;5031527;28;20437;-69
2021/05/16 08:47:00;;;;;;;2.17;1.50;;;16.60;99.90;;;;;;5031314;28;20426;-69
2021/05/16 08:49:27;;;;;;;1.90;1.43;;;16.50;99.90;;;;;;5031168;28;20399;-70
2021/05/16 08:51:55;;;;;;;1.70;1.30;;;16.40;99.90;;;;;;5031280;28;20395;-69
2021/05/16 08:54:24;;;;;;;1.37;1.27;;;16.60;99.90;;;;;;5030963;28;20422;-71
2021/05/16 08:56:54;;;;;;;1.97;1.57;;;16.60;99.90;;;;;;5031609;28;20463;-70
2021/05/16 08:59:25;;;;;;;1.50;1.20;;;16.60;99.90;;;;;;5031079;28;20425;-71
2021/05/16 09:01:55;;;;;;;1.70;1.50;;;16.30;99.90;;;;;;5034456;28;20559;-69
2021/05/16 09:04:28;;;;;;;1.80;1.17;;;15.80;99.90;;;;;;5030423;28;20782;-69
2021/05/16 09:06:57;;;;;;;1.70;1.20;;;15.40;99.90;;;;;;5030307;28;20398;-69
2021/05/16 09:09:31;;;;;;;2.43;1.20;;;15.20;99.90;;;;;;5030430;28;20394;-69
2021/05/16 09:12:00;;;;;;;2.67;1.33;;;14.90;99.90;;;;;;5030458;28;20403;-72
2021/05/16 09:14:48;;;;;;;3.33;2.13;;;14.80;99.90;;;;;;5030529;28;20432;-71
2021/05/16 09:17:36;;;;;;;3.17;2.70;;;14.70;99.90;;;;;;5028852;28;20447;-69
2021/05/16 09:20:06;;;;;;;4.47;1.90;;;14.60;99.90;;;;;;5030222;28;20456;-69
2021/05/16 09:22:40;;;;;;;2.80;1.93;;;15.10;99.90;;;;;;5029728;28;20513;-69
2021/05/16 09:25:14;;;;;;;1.40;1.03;;;15.60;99.90;;;;;;5029943;28;20519;-69
2021/05/16 09:27:42;;;;;;;1.10;1.00;;;15.70;99.90;;;;;;5030117;28;20390;-69
2021/05/16 09:30:28;;;;;;;1.50;1.30;;;16.00;99.90;;;;;;5030411;28;20420;-69
2021/05/16 09:32:58;;;;;;;1.10;0.90;;;16.40;99.90;;;;;;5030298;28;20555;-68
2021/05/16 09:35:38;;;;;;;3.73;1.27;;;16.90;99.90;;;;;;5030220;28;20421;-69
2021/05/16 09:38:11;;;;;;;1.70;1.20;;;17.30;99.90;;;;;;5030571;28;20492;-69
2021/05/16 09:40:42;;;;;;;1.60;1.30;;;17.30;99.90;;;;;;5030521;28;20434;-70
2021/05/16 09:43:16;;;;;;;1.40;1.20;;;17.40;99.90;;;;;;5030127;28;20418;-69
2021/05/16 09:45:54;;;;;;;1.97;1.20;;;17.50;99.90;;;;;;5029280;28;20722;-70
2021/05/16 09:48:31;;;;;;;1.90;1.33;;;18.00;99.90;;;;;;5030546;28;21116;-70
2021/05/16 09:51:15;;;;;;;1.40;1.30;;;18.40;99.90;;;;;;5030265;28;20394;-71
2021/05/16 09:53:55;;;;;;;1.30;1.10;;;18.60;99.90;;;;;;5030447;28;20422;-71
2021/05/16 09:56:25;;;;;;;1.83;1.50;;;18.70;99.90;;;;;;5030432;28;20434;-70
2021/05/16 09:58:54;;;;;;;1.33;0.90;;;18.70;99.90;;;;;;5029948;28;20464;-69
2021/05/16 10:01:24;;;;;;;2.23;1.67;;;18.90;99.90;;;;;;5029819;28;20421;-69
2021/05/16 10:03:52;;;;;;;2.60;2.00;;;19.20;99.90;;;;;;5029764;28;20444;-69
2021/05/16 10:06:21;;;;;;;2.07;1.27;;;19.40;99.90;;;;;;5030591;28;20825;-70
2021/05/16 10:08:50;;;;;;;1.10;0.80;;;19.40;99.90;;;;;;5030461;28;20895;-69
2021/05/16 10:11:19;;;;;;;2.73;1.80;;;19.40;99.90;;;;;;5030355;28;20409;-70
2021/05/16 10:13:55;;;;;;;1.60;1.30;;;18.90;99.90;;;;;;5034331;28;20459;-70
2021/05/16 10:16:25;;;;;;;3.03;1.20;;;18.30;99.90;;;;;;5032118;28;20515;-70
2021/05/16 10:18:55;;;;;;;3.10;1.33;;;18.30;99.90;;;;;;5033990;28;20525;-69
2021/05/16 10:21:24;;;;;;;3.73;1.70;;;18.20;99.90;;;;;;5033185;28;20420;-68
2021/05/16 10:24:10;;;;;;;2.10;1.60;;;17.90;99.90;;;;;;5033433;28;20472;-69
2021/05/16 10:26:39;;;;;;;2.17;1.17;;;17.30;99.90;;;;;;5032119;28;20530;-69
2021/05/16 10:29:09;;;;;;;1.87;1.40;;;17.20;99.90;;;;;;5032962;28;20455;-66
2021/05/16 10:31:55;;;;;;;3.30;1.60;;;17.30;99.90;;;;;;5032929;28;20397;-67
2021/05/16 10:34:42;;;;;;;1.90;1.70;;;17.10;99.90;;;;;;5032216;28;20440;-69
2021/05/16 10:37:31;;;;;;;4.70;2.40;;;16.70;99.90;;;;;;5033265;28;20399;-67
2021/05/16 10:39:59;;;;;;;6.30;1.57;;;16.20;99.90;;;;;;5032993;28;20904;-68
2021/05/16 10:42:36;;;;;;;1.77;1.57;;;15.30;99.90;;;;;;5030674;28;20423;-68
2021/05/16 10:45:13;;;;;;;4.07;2.43;;;15.10;99.90;;;;;;5030478;28;20530;-67
2021/05/16 10:48:07;;;;;;;3.90;1.73;;;15.10;99.90;;;;;;5033202;28;20398;-67
2021/05/16 10:50:57;;;;;;;6.40;1.70;;;15.40;99.90;;;;;;5012652;28;20447;-67
2021/05/16 10:53:34;;;;;;;3.87;1.30;;;15.80;99.90;;;;;;5012679;28;20880;-67
2021/05/16 10:56:08;;;;;;;1.73;1.30;;;16.20;99.90;;;;;;5012877;28;20912;-67
2021/05/16 10:58:44;;;;;;;1.50;1.10;;;16.70;99.90;;;;;;5013008;28;20465;-67
2021/05/16 11:01:15;;;;;;;2.43;1.93;;;16.90;99.90;;;;;;5015998;28;20497;-68
2021/05/16 11:03:56;;;;;;;3.77;1.57;;;16.50;99.90;;;;;;5032183;28;20426;-67
2021/05/16 11:06:46;;;;;;;1.77;1.20;;;16.50;99.90;;;;;;5032410;28;20409;-69
2021/05/16 11:09:15;;;;;;;3.23;1.13;;;16.50;99.90;;;;;;5032043;28;20426;-68
2021/05/16 11:11:59;;;;;;;2.17;1.10;;;16.90;99.90;;;;;;5031969;28;20421;-68
2021/05/16 11:14:39;;;;;;;1.50;1.20;;;17.10;99.90;;;;;;5032228;28;20434;-68
2021/05/16 11:17:11;;;;;;;5.57;1.73;;;16.80;99.90;;;;;;5031234;28;20827;-70
2021/05/16 11:19:43;;;;;;;2.87;1.83;;;16.70;99.90;;;;;;5016979;28;20447;-70
2021/05/16 11:22:13;;;;;;;2.60;1.07;;;16.90;99.90;;;;;;5012321;28;20436;-70
2021/05/16 11:24:45;;;;;;;2.00;1.63;;;17.10;99.90;;;;;;5012785;28;20924;-69
2021/05/16 11:27:23;;;;;;;4.03;1.60;;;17.30;99.90;;;;;;5012391;28;20471;-68
2021/05/16 11:29:52;;;;;;;2.60;1.20;;;17.40;99.90;;;;;;5012252;28;20426;-68
2021/05/16 11:32:28;;;;;;;1.80;1.33;;;17.40;99.90;;;;;;5011571;28;20444;-69
2021/05/16 11:35:09;;;;;;;4.73;1.37;;;17.70;99.90;;;;;;5012098;28;20450;-68
2021/05/16 11:37:38;;;;;;;2.67;1.43;;;17.80;99.90;;;;;;5012204;28;20399;-68
2021/05/16 11:40:31;;;;;;;1.83;1.60;;;18.00;99.90;;;;;;5012527;28;20417;-71
2021/05/16 11:43:03;;;;;;;2.00;1.47;;;18.20;99.90;;;;;;5010707;28;20455;-70
2021/05/16 11:45:34;;;;;;;4.03;1.73;;;17.90;99.90;;;;;;5012057;28;20505;-67
2021/05/16 11:48:02;;;;;;;1.97;1.30;;;17.60;99.90;;;;;;5012059;28;20804;-70
2021/05/16 11:50:45;;;;;;;3.30;1.63;;;17.60;99.90;;;;;;5012134;28;20429;-71
2021/05/16 11:53:14;;;;;;;2.30;1.20;;;17.40;99.90;;;;;;5011742;28;20491;-70
2021/05/16 11:55:42;;;;;;;2.03;1.67;;;17.10;99.90;;;;;;5012132;28;20377;-69
2021/05/16 11:58:11;;;;;;;1.40;1.03;;;16.80;99.90;;;;;;5011921;28;20463;-69
2021/05/16 12:00:39;;;;;;;2.00;1.53;;;16.60;99.90;;;;;;5010822;28;20408;-71
2021/05/16 12:03:12;;;;;;;4.27;1.90;;;16.40;99.90;;;;;;5012413;28;20945;-69
2021/05/16 12:05:41;;;;;;;4.90;1.43;;;16.10;99.90;;;;;;5011859;28;20411;-68
2021/05/16 12:08:22;;;;;;;1.63;1.07;;;16.10;99.90;;;;;;5012191;28;20460;-68
2021/05/16 12:11:07;;;;;;;2.10;1.13;;;16.10;99.90;;;;;;5011498;28;20490;-69
2021/05/16 12:13:35;;;;;;;1.50;0.70;;;16.00;99.90;;;;;;5011742;28;20452;-69
2021/05/16 12:16:17;;;;;;;1.20;0.83;;;16.00;99.90;;;;;;5011705;28;20409;-68
2021/05/16 12:18:46;;;;;;;1.17;1.07;;;16.30;99.90;;;;;;5011457;28;20482;-69
2021/05/16 12:21:15;;;;;;;1.27;1.00;;;16.40;99.90;;;;;;5011443;28;20763;-70
2021/05/16 12:23:57;;;;;;;1.00;0.60;;;16.90;99.90;;;;;;5011607;28;20556;-69
2021/05/16 12:26:27;;;;;;;1.20;0.80;;;17.20;99.90;;;;;;5028665;28;20398;-70
2021/05/16 12:28:56;;;;;;;1.60;0.77;;;17.40;99.90;;;;;;5011878;28;20425;-69
2021/05/16 12:31:25;;;;;;;1.20;0.93;;;17.40;99.90;;;;;;5026804;28;20401;-69
2021/05/16 12:33:58;;;;;;;1.30;1.00;;;17.70;99.90;;;;;;5030872;28;20506;-69
2021/05/16 12:36:26;;;;;;;1.87;0.90;;;17.70;99.90;;;;;;5032171;28;20395;-68
2021/05/16 12:38:55;;;;;;;1.60;1.00;;;17.80;99.90;;;;;;5031015;28;21083;-69
2021/05/16 12:41:25;;;;;;;2.23;1.20;;;17.70;99.90;;;;;;5030979;28;20431;-68
2021/05/16 12:44:22;;;;;;;1.50;0.90;;;16.90;99.90;;;;;;5031302;28;21046;-68
2021/05/16 12:46:50;;;;;;;2.20;1.80;;;16.30;99.90;;;;;;5031282;28;20401;-68
2021/05/16 12:49:20;;;;;;;1.60;1.13;;;15.70;99.90;;;;;;5031357;28;20451;-70
2021/05/16 12:51:55;;;;;;;3.77;1.20;;;15.60;99.90;;;;;;5031488;28;20493;-69
2021/05/16 12:54:25;;;;;;;1.63;0.90;;;15.60;99.90;;;;;;5011575;28;20464;-69
2021/05/16 12:57:02;;;;;;;1.40;0.90;;;15.50;99.90;;;;;;5011459;28;20431;-69
2021/05/16 12:59:36;;;;;;;3.33;1.23;;;15.20;99.90;;;;;;5010152;28;20428;-66
2021/05/16 13:02:05;;;;;;;2.60;1.53;;;14.80;99.90;;;;;;5011018;28;20421;-68
2021/05/16 13:04:45;;;;;;;1.50;0.97;;;14.80;99.90;;;;;;5011157;28;20448;-68